sensor_id;sensor_type;location;lat;lon;timestamp;temperature;humidity
21891;DHT22;11110;52.386;16.940;2023-06-26T00:00:13;32.50;44.10
21891;DHT22;11110;52.386;16.940;2023-06-26T00:03:03;32.50;44.20
21891;DHT22;11110;52.386;16.940;2023-06-26T00:05:32;32.50;44.30
21891;DHT22;11110;52.386;16.940;2023-06-26T00:08:02;32.50;44.20
21891;DHT22;11110;52.386;16.940;2023-06-26T00:10:30;32.40;44.20
21891;DHT22;11110;52.386;16.940;2023-06-26T00:12:59;32.40;44.20
21891;DHT22;11110;52.386;16.940;2023-06-26T00:15:29;32.40;44.30
21891;DHT22;11110;52.386;16.940;2023-06-26T00:17:59;32.40;44.30
21891;DHT22;11110;52.386;16.940;2023-06-26T00:20:29;32.30;44.40
21891;DHT22;11110;52.386;16.940;2023-06-26T00:23:01;32.30;44.40
21891;DHT22;11110;52.386;16.940;2023-06-26T00:25:31;32.40;44.50
21891;DHT22;11110;52.386;16.940;2023-06-26T00:28:00;32.30;44.40
21891;DHT22;11110;52.386;16.940;2023-06-26T00:30:28;32.30;44.50
21891;DHT22;11110;52.386;16.940;2023-06-26T00:32:57;32.20;44.40
21891;DHT22;11110;52.386;16.940;2023-06-26T00:35:25;32.20;44.40
21891;DHT22;11110;52.386;16.940;2023-06-26T00:37:55;32.30;44.40
21891;DHT22;11110;52.386;16.940;2023-06-26T00:40:24;32.30;44.30
21891;DHT22;11110;52.386;16.940;2023-06-26T00:42:54;32.30;44.30
21891;DHT22;11110;52.386;16.940;2023-06-26T00:45:22;32.30;44.40
21891;DHT22;11110;52.386;16.940;2023-06-26T00:48:09;32.30;44.40
21891;DHT22;11110;52.386;16.940;2023-06-26T00:50:39;32.30;44.50
21891;DHT22;11110;52.386;16.940;2023-06-26T00:53:11;32.30;44.40
21891;DHT22;11110;52.386;16.940;2023-06-26T00:55:39;32.30;44.10
21891;DHT22;11110;52.386;16.940;2023-06-26T00:58:09;32.20;43.90
21891;DHT22;11110;52.386;16.940;2023-06-26T01:00:38;32.20;44.00
21891;DHT22;11110;52.386;16.940;2023-06-26T01:03:08;32.20;44.10
21891;DHT22;11110;52.386;16.940;2023-06-26T01:05:37;32.10;44.10
21891;DHT22;11110;52.386;16.940;2023-06-26T01:08:05;32.20;44.10
21891;DHT22;11110;52.386;16.940;2023-06-26T01:10:36;32.10;43.70
21891;DHT22;11110;52.386;16.940;2023-06-26T01:13:05;32.10;43.70
21891;DHT22;11110;52.386;16.940;2023-06-26T01:15:33;32.10;43.80
21891;DHT22;11110;52.386;16.940;2023-06-26T01:18:03;32.10;43.90
21891;DHT22;11110;52.386;16.940;2023-06-26T01:20:35;32.00;43.70
21891;DHT22;11110;52.386;16.940;2023-06-26T01:23:23;32.00;43.70
21891;DHT22;11110;52.386;16.940;2023-06-26T01:26:17;32.00;43.80
21891;DHT22;11110;52.386;16.940;2023-06-26T01:28:49;32.00;43.80
21891;DHT22;11110;52.386;16.940;2023-06-26T01:31:19;32.00;43.90
21891;DHT22;11110;52.386;16.940;2023-06-26T01:33:49;31.90;44.00
21891;DHT22;11110;52.386;16.940;2023-06-26T01:36:20;31.90;44.20
21891;DHT22;11110;52.386;16.940;2023-06-26T01:38:49;31.80;44.30
21891;DHT22;11110;52.386;16.940;2023-06-26T01:41:19;31.90;44.00
21891;DHT22;11110;52.386;16.940;2023-06-26T01:46:47;31.90;44.00
21891;DHT22;11110;52.386;16.940;2023-06-26T01:49:21;31.90;43.70
21891;DHT22;11110;52.386;16.940;2023-06-26T01:51:58;31.80;43.50
21891;DHT22;11110;52.386;16.940;2023-06-26T01:54:35;31.80;43.20
21891;DHT22;11110;52.386;16.940;2023-06-26T01:57:07;31.80;43.30
21891;DHT22;11110;52.386;16.940;2023-06-26T01:59:37;31.70;43.40
21891;DHT22;11110;52.386;16.940;2023-06-26T02:02:07;31.70;43.60
21891;DHT22;11110;52.386;16.940;2023-06-26T02:04:37;31.70;44.20
21891;DHT22;11110;52.386;16.940;2023-06-26T02:07:06;31.60;44.40
21891;DHT22;11110;52.386;16.940;2023-06-26T02:09:36;31.60;44.50
21891;DHT22;11110;52.386;16.940;2023-06-26T02:12:07;31.50;44.30
21891;DHT22;11110;52.386;16.940;2023-06-26T02:14:35;31.50;44.40
21891;DHT22;11110;52.386;16.940;2023-06-26T02:17:04;31.40;44.10
21891;DHT22;11110;52.386;16.940;2023-06-26T02:19:34;31.50;43.70
21891;DHT22;11110;52.386;16.940;2023-06-26T02:22:02;31.40;43.80
21891;DHT22;11110;52.386;16.940;2023-06-26T02:24:31;31.40;43.50
21891;DHT22;11110;52.386;16.940;2023-06-26T02:27:01;31.40;43.50
21891;DHT22;11110;52.386;16.940;2023-06-26T02:29:31;31.40;43.50
21891;DHT22;11110;52.386;16.940;2023-06-26T02:31:59;31.40;43.40
21891;DHT22;11110;52.386;16.940;2023-06-26T02:34:28;31.40;43.50
21891;DHT22;11110;52.386;16.940;2023-06-26T02:36:57;31.40;43.60
21891;DHT22;11110;52.386;16.940;2023-06-26T02:39:28;31.40;43.50
21891;DHT22;11110;52.386;16.940;2023-06-26T02:41:56;31.30;43.50
21891;DHT22;11110;52.386;16.940;2023-06-26T02:44:26;31.40;43.60
21891;DHT22;11110;52.386;16.940;2023-06-26T02:46:55;31.30;43.60
21891;DHT22;11110;52.386;16.940;2023-06-26T02:49:24;31.30;43.70
21891;DHT22;11110;52.386;16.940;2023-06-26T02:51:53;31.30;44.00
21891;DHT22;11110;52.386;16.940;2023-06-26T02:54:28;31.30;44.00
21891;DHT22;11110;52.386;16.940;2023-06-26T02:57:02;31.20;44.10
21891;DHT22;11110;52.386;16.940;2023-06-26T02:59:32;31.20;44.30
21891;DHT22;11110;52.386;16.940;2023-06-26T03:02:03;31.10;44.50
21891;DHT22;11110;52.386;16.940;2023-06-26T03:04:41;31.10;44.70
21891;DHT22;11110;52.386;16.940;2023-06-26T03:07:12;31.10;44.80
21891;DHT22;11110;52.386;16.940;2023-06-26T03:09:42;31.10;44.90
21891;DHT22;11110;52.386;16.940;2023-06-26T03:12:10;31.20;45.00
21891;DHT22;11110;52.386;16.940;2023-06-26T03:14:39;31.10;44.90
21891;DHT22;11110;52.386;16.940;2023-06-26T03:17:09;31.10;44.90
21891;DHT22;11110;52.386;16.940;2023-06-26T03:19:40;31.10;44.70
21891;DHT22;11110;52.386;16.940;2023-06-26T03:22:23;31.10;44.60
21891;DHT22;11110;52.386;16.940;2023-06-26T03:24:51;31.10;44.70
21891;DHT22;11110;52.386;16.940;2023-06-26T03:27:20;31.10;44.60
21891;DHT22;11110;52.386;16.940;2023-06-26T03:29:50;31.10;44.90
21891;DHT22;11110;52.386;16.940;2023-06-26T03:32:22;31.10;45.10
21891;DHT22;11110;52.386;16.940;2023-06-26T03:34:51;31.10;45.20
21891;DHT22;11110;52.386;16.940;2023-06-26T03:37:21;31.00;45.00
21891;DHT22;11110;52.386;16.940;2023-06-26T03:39:50;31.00;45.20
21891;DHT22;11110;52.386;16.940;2023-06-26T03:42:19;31.00;45.40
21891;DHT22;11110;52.386;16.940;2023-06-26T03:44:47;30.90;45.60
21891;DHT22;11110;52.386;16.940;2023-06-26T03:47:18;30.90;45.70
21891;DHT22;11110;52.386;16.940;2023-06-26T03:49:48;30.90;45.70
21891;DHT22;11110;52.386;16.940;2023-06-26T03:52:16;30.90;45.70
21891;DHT22;11110;52.386;16.940;2023-06-26T03:54:45;30.90;45.70
21891;DHT22;11110;52.386;16.940;2023-06-26T03:57:16;30.90;45.60
21891;DHT22;11110;52.386;16.940;2023-06-26T03:59:47;30.90;45.50
21891;DHT22;11110;52.386;16.940;2023-06-26T04:02:15;30.90;45.30
21891;DHT22;11110;52.386;16.940;2023-06-26T04:04:44;31.00;45.30
21891;DHT22;11110;52.386;16.940;2023-06-26T04:07:15;31.00;45.40
21891;DHT22;11110;52.386;16.940;2023-06-26T04:09:44;31.00;45.30
21891;DHT22;11110;52.386;16.940;2023-06-26T04:12:12;31.00;45.30
21891;DHT22;11110;52.386;16.940;2023-06-26T04:14:41;31.00;45.20
21891;DHT22;11110;52.386;16.940;2023-06-26T04:17:11;31.10;45.00
21891;DHT22;11110;52.386;16.940;2023-06-26T04:19:39;31.00;45.10
21891;DHT22;11110;52.386;16.940;2023-06-26T04:22:08;31.10;45.20
21891;DHT22;11110;52.386;16.940;2023-06-26T04:24:38;31.10;45.20
21891;DHT22;11110;52.386;16.940;2023-06-26T04:27:06;31.10;45.00
21891;DHT22;11110;52.386;16.940;2023-06-26T04:29:35;31.10;45.10
21891;DHT22;11110;52.386;16.940;2023-06-26T04:32:04;31.10;45.20
21891;DHT22;11110;52.386;16.940;2023-06-26T04:34:34;31.10;45.10
21891;DHT22;11110;52.386;16.940;2023-06-26T04:37:03;31.10;45.10
21891;DHT22;11110;52.386;16.940;2023-06-26T04:39:32;31.20;45.10
21891;DHT22;11110;52.386;16.940;2023-06-26T04:42:02;31.20;45.20
21891;DHT22;11110;52.386;16.940;2023-06-26T04:44:31;31.20;45.10
21891;DHT22;11110;52.386;16.940;2023-06-26T04:46:59;31.20;45.20
21891;DHT22;11110;52.386;16.940;2023-06-26T04:49:28;31.20;45.20
21891;DHT22;11110;52.386;16.940;2023-06-26T04:51:57;31.20;45.20
21891;DHT22;11110;52.386;16.940;2023-06-26T04:54:27;31.30;45.20
21891;DHT22;11110;52.386;16.940;2023-06-26T04:56:56;31.30;45.10
21891;DHT22;11110;52.386;16.940;2023-06-26T04:59:26;31.30;44.90
21891;DHT22;11110;52.386;16.940;2023-06-26T05:01:54;31.40;44.70
21891;DHT22;11110;52.386;16.940;2023-06-26T05:04:22;31.40;44.60
21891;DHT22;11110;52.386;16.940;2023-06-26T05:06:51;31.40;44.40
21891;DHT22;11110;52.386;16.940;2023-06-26T05:09:20;31.50;44.30
21891;DHT22;11110;52.386;16.940;2023-06-26T05:11:49;31.50;44.00
21891;DHT22;11110;52.386;16.940;2023-06-26T05:14:17;31.50;44.60
21891;DHT22;11110;52.386;16.940;2023-06-26T05:16:47;31.60;43.70
21891;DHT22;11110;52.386;16.940;2023-06-26T05:19:15;31.60;43.60
21891;DHT22;11110;52.386;16.940;2023-06-26T05:21:44;31.70;43.70
21891;DHT22;11110;52.386;16.940;2023-06-26T05:24:14;31.70;43.60
21891;DHT22;11110;52.386;16.940;2023-06-26T05:26:44;31.70;43.40
21891;DHT22;11110;52.386;16.940;2023-06-26T05:29:13;31.80;43.30
21891;DHT22;11110;52.386;16.940;2023-06-26T05:31:42;31.80;43.30
21891;DHT22;11110;52.386;16.940;2023-06-26T05:34:15;31.90;43.30
21891;DHT22;11110;52.386;16.940;2023-06-26T05:36:46;32.00;43.20
21891;DHT22;11110;52.386;16.940;2023-06-26T05:39:17;32.00;43.20
21891;DHT22;11110;52.386;16.940;2023-06-26T05:41:46;32.00;43.20
21891;DHT22;11110;52.386;16.940;2023-06-26T05:44:15;32.00;43.10
21891;DHT22;11110;52.386;16.940;2023-06-26T05:46:43;32.00;42.40
21891;DHT22;11110;52.386;16.940;2023-06-26T05:49:13;32.10;42.10
21891;DHT22;11110;52.386;16.940;2023-06-26T05:51:43;32.10;42.00
21891;DHT22;11110;52.386;16.940;2023-06-26T05:54:12;32.20;42.20
21891;DHT22;11110;52.386;16.940;2023-06-26T05:56:41;32.20;42.00
21891;DHT22;11110;52.386;16.940;2023-06-26T05:59:11;32.20;41.90
21891;DHT22;11110;52.386;16.940;2023-06-26T06:01:40;32.30;42.20
21891;DHT22;11110;52.386;16.940;2023-06-26T06:04:09;32.30;42.40
21891;DHT22;11110;52.386;16.940;2023-06-26T06:06:39;32.30;42.40
21891;DHT22;11110;52.386;16.940;2023-06-26T06:09:07;32.40;42.30
21891;DHT22;11110;52.386;16.940;2023-06-26T06:11:36;32.40;42.30
21891;DHT22;11110;52.386;16.940;2023-06-26T06:14:04;32.40;42.30
21891;DHT22;11110;52.386;16.940;2023-06-26T06:16:33;32.50;42.20
21891;DHT22;11110;52.386;16.940;2023-06-26T06:19:01;32.50;42.40
21891;DHT22;11110;52.386;16.940;2023-06-26T06:21:30;32.60;42.30
21891;DHT22;11110;52.386;16.940;2023-06-26T06:24:00;32.60;42.10
21891;DHT22;11110;52.386;16.940;2023-06-26T06:26:29;32.60;42.00
21891;DHT22;11110;52.386;16.940;2023-06-26T06:28:57;32.70;41.80
21891;DHT22;11110;52.386;16.940;2023-06-26T06:31:26;32.70;41.90
21891;DHT22;11110;52.386;16.940;2023-06-26T06:33:55;32.80;41.80
21891;DHT22;11110;52.386;16.940;2023-06-26T06:36:24;32.80;41.60
21891;DHT22;11110;52.386;16.940;2023-06-26T06:38:52;32.90;41.30
21891;DHT22;11110;52.386;16.940;2023-06-26T06:41:22;32.90;41.00
21891;DHT22;11110;52.386;16.940;2023-06-26T06:43:51;33.00;41.20
21891;DHT22;11110;52.386;16.940;2023-06-26T06:46:20;33.00;41.20
21891;DHT22;11110;52.386;16.940;2023-06-26T06:48:48;33.10;41.20
21891;DHT22;11110;52.386;16.940;2023-06-26T06:51:17;33.00;41.00
21891;DHT22;11110;52.386;16.940;2023-06-26T06:53:45;33.10;40.80
21891;DHT22;11110;52.386;16.940;2023-06-26T06:56:14;33.10;39.90
21891;DHT22;11110;52.386;16.940;2023-06-26T06:58:44;33.20;40.00
21891;DHT22;11110;52.386;16.940;2023-06-26T07:01:14;33.20;39.80
21891;DHT22;11110;52.386;16.940;2023-06-26T07:03:42;33.30;40.50
21891;DHT22;11110;52.386;16.940;2023-06-26T07:06:11;33.30;39.60
21891;DHT22;11110;52.386;16.940;2023-06-26T07:08:40;33.30;38.90
21891;DHT22;11110;52.386;16.940;2023-06-26T07:11:08;33.30;39.30
21891;DHT22;11110;52.386;16.940;2023-06-26T07:13:37;33.40;39.00
21891;DHT22;11110;52.386;16.940;2023-06-26T07:16:07;33.40;39.00
21891;DHT22;11110;52.386;16.940;2023-06-26T07:18:38;33.50;38.70
21891;DHT22;11110;52.386;16.940;2023-06-26T07:21:07;33.50;38.40
21891;DHT22;11110;52.386;16.940;2023-06-26T07:23:36;33.50;38.70
21891;DHT22;11110;52.386;16.940;2023-06-26T07:26:05;33.60;38.90
21891;DHT22;11110;52.386;16.940;2023-06-26T07:28:33;33.60;37.40
21891;DHT22;11110;52.386;16.940;2023-06-26T07:31:02;33.70;36.50
21891;DHT22;11110;52.386;16.940;2023-06-26T07:33:32;33.70;36.50
21891;DHT22;11110;52.386;16.940;2023-06-26T07:36:00;33.70;37.10
21891;DHT22;11110;52.386;16.940;2023-06-26T07:38:29;33.80;37.00
21891;DHT22;11110;52.386;16.940;2023-06-26T07:40:57;33.80;37.20
21891;DHT22;11110;52.386;16.940;2023-06-26T07:43:26;33.90;36.10
21891;DHT22;11110;52.386;16.940;2023-06-26T07:45:54;33.90;36.80
21891;DHT22;11110;52.386;16.940;2023-06-26T07:48:25;33.90;37.00
21891;DHT22;11110;52.386;16.940;2023-06-26T07:50:55;33.90;37.00
21891;DHT22;11110;52.386;16.940;2023-06-26T07:53:23;34.10;35.90
21891;DHT22;11110;52.386;16.940;2023-06-26T07:55:53;34.00;36.40
21891;DHT22;11110;52.386;16.940;2023-06-26T07:58:21;34.00;36.90
21891;DHT22;11110;52.386;16.940;2023-06-26T08:00:50;34.10;36.40
21891;DHT22;11110;52.386;16.940;2023-06-26T08:03:18;34.10;36.70
21891;DHT22;11110;52.386;16.940;2023-06-26T08:06:02;34.20;36.00
21891;DHT22;11110;52.386;16.940;2023-06-26T08:08:31;34.20;36.60
21891;DHT22;11110;52.386;16.940;2023-06-26T08:11:00;34.20;35.80
21891;DHT22;11110;52.386;16.940;2023-06-26T08:13:28;34.20;36.30
21891;DHT22;11110;52.386;16.940;2023-06-26T08:15:57;34.30;36.40
21891;DHT22;11110;52.386;16.940;2023-06-26T08:18:25;34.30;37.20
21891;DHT22;11110;52.386;16.940;2023-06-26T08:20:55;34.30;36.50
21891;DHT22;11110;52.386;16.940;2023-06-26T08:23:24;34.40;35.60
21891;DHT22;11110;52.386;16.940;2023-06-26T08:25:53;34.50;36.10
21891;DHT22;11110;52.386;16.940;2023-06-26T08:28:25;34.50;36.20
21891;DHT22;11110;52.386;16.940;2023-06-26T08:30:54;34.50;36.00
21891;DHT22;11110;52.386;16.940;2023-06-26T08:33:22;34.50;36.10
21891;DHT22;11110;52.386;16.940;2023-06-26T08:35:51;34.50;35.80
21891;DHT22;11110;52.386;16.940;2023-06-26T08:38:19;34.60;34.90
21891;DHT22;11110;52.386;16.940;2023-06-26T08:40:50;34.60;35.80
21891;DHT22;11110;52.386;16.940;2023-06-26T08:43:19;34.60;36.00
21891;DHT22;11110;52.386;16.940;2023-06-26T08:45:49;34.60;36.00
21891;DHT22;11110;52.386;16.940;2023-06-26T08:48:20;34.70;36.30
21891;DHT22;11110;52.386;16.940;2023-06-26T08:50:52;34.80;35.70
21891;DHT22;11110;52.386;16.940;2023-06-26T08:53:23;34.80;35.70
21891;DHT22;11110;52.386;16.940;2023-06-26T08:55:58;34.80;36.00
21891;DHT22;11110;52.386;16.940;2023-06-26T08:58:27;34.90;36.30
21891;DHT22;11110;52.386;16.940;2023-06-26T09:00:56;34.90;36.60
21891;DHT22;11110;52.386;16.940;2023-06-26T09:03:26;34.90;36.80
21891;DHT22;11110;52.386;16.940;2023-06-26T09:05:54;34.90;36.40
21891;DHT22;11110;52.386;16.940;2023-06-26T09:08:23;34.90;36.60
21891;DHT22;11110;52.386;16.940;2023-06-26T09:10:52;35.00;35.20
21891;DHT22;11110;52.386;16.940;2023-06-26T09:13:22;35.10;35.60
21891;DHT22;11110;52.386;16.940;2023-06-26T09:15:56;35.10;35.10
21891;DHT22;11110;52.386;16.940;2023-06-26T09:18:26;35.20;35.40
21891;DHT22;11110;52.386;16.940;2023-06-26T09:20:54;35.20;35.40
21891;DHT22;11110;52.386;16.940;2023-06-26T09:23:23;35.30;34.70
21891;DHT22;11110;52.386;16.940;2023-06-26T09:25:52;35.40;33.80
21891;DHT22;11110;52.386;16.940;2023-06-26T09:28:21;35.40;35.00
21891;DHT22;11110;52.386;16.940;2023-06-26T09:30:52;35.40;34.90
21891;DHT22;11110;52.386;16.940;2023-06-26T09:33:20;35.40;34.40
21891;DHT22;11110;52.386;16.940;2023-06-26T09:35:49;35.70;34.00
21891;DHT22;11110;52.386;16.940;2023-06-26T09:38:17;35.60;33.90
21891;DHT22;11110;52.386;16.940;2023-06-26T09:40:46;35.70;34.10
21891;DHT22;11110;52.386;16.940;2023-06-26T09:43:15;35.70;33.70
21891;DHT22;11110;52.386;16.940;2023-06-26T09:45:45;35.70;33.50
21891;DHT22;11110;52.386;16.940;2023-06-26T09:48:14;35.70;34.00
21891;DHT22;11110;52.386;16.940;2023-06-26T09:50:45;35.70;33.50
21891;DHT22;11110;52.386;16.940;2023-06-26T09:53:35;35.80;34.00
21891;DHT22;11110;52.386;16.940;2023-06-26T09:56:08;35.90;34.20
21891;DHT22;11110;52.386;16.940;2023-06-26T09:58:43;35.90;34.80
21891;DHT22;11110;52.386;16.940;2023-06-26T10:01:14;35.90;34.80
21891;DHT22;11110;52.386;16.940;2023-06-26T10:03:43;35.90;34.30
21891;DHT22;11110;52.386;16.940;2023-06-26T10:06:12;36.10;34.10
21891;DHT22;11110;52.386;16.940;2023-06-26T10:08:41;36.10;34.30
21891;DHT22;11110;52.386;16.940;2023-06-26T10:11:14;36.10;34.10
21891;DHT22;11110;52.386;16.940;2023-06-26T10:13:45;36.20;34.30
21891;DHT22;11110;52.386;16.940;2023-06-26T10:16:21;36.20;34.50
21891;DHT22;11110;52.386;16.940;2023-06-26T10:18:53;36.30;35.10
21891;DHT22;11110;52.386;16.940;2023-06-26T10:21:26;36.40;35.60
21891;DHT22;11110;52.386;16.940;2023-06-26T10:23:56;36.40;35.20
21891;DHT22;11110;52.386;16.940;2023-06-26T10:26:26;36.50;33.20
21891;DHT22;11110;52.386;16.940;2023-06-26T10:28:57;36.50;32.70
21891;DHT22;11110;52.386;16.940;2023-06-26T10:31:28;36.40;32.90
21891;DHT22;11110;52.386;16.940;2023-06-26T10:33:58;36.60;33.40
21891;DHT22;11110;52.386;16.940;2023-06-26T10:36:29;36.60;33.30
21891;DHT22;11110;52.386;16.940;2023-06-26T10:39:01;36.60;33.70
21891;DHT22;11110;52.386;16.940;2023-06-26T10:41:37;36.70;33.80
21891;DHT22;11110;52.386;16.940;2023-06-26T10:44:16;36.80;32.80
21891;DHT22;11110;52.386;16.940;2023-06-26T10:46:50;36.80;32.10
21891;DHT22;11110;52.386;16.940;2023-06-26T10:49:21;36.90;32.00
21891;DHT22;11110;52.386;16.940;2023-06-26T10:52:01;36.90;33.70
21891;DHT22;11110;52.386;16.940;2023-06-26T10:54:31;37.10;32.10
21891;DHT22;11110;52.386;16.940;2023-06-26T10:57:01;37.00;32.60
21891;DHT22;11110;52.386;16.940;2023-06-26T10:59:31;37.10;32.80
21891;DHT22;11110;52.386;16.940;2023-06-26T11:02:03;37.10;32.40
21891;DHT22;11110;52.386;16.940;2023-06-26T11:04:39;37.20;32.90
21891;DHT22;11110;52.386;16.940;2023-06-26T11:07:16;37.20;34.00
21891;DHT22;11110;52.386;16.940;2023-06-26T11:09:56;37.30;34.30
21891;DHT22;11110;52.386;16.940;2023-06-26T11:12:35;37.20;32.40
21891;DHT22;11110;52.386;16.940;2023-06-26T11:15:07;37.30;32.30
21891;DHT22;11110;52.386;16.940;2023-06-26T11:17:38;37.30;32.30
21891;DHT22;11110;52.386;16.940;2023-06-26T11:20:08;37.30;33.40
21891;DHT22;11110;52.386;16.940;2023-06-26T11:22:39;37.30;34.00
21891;DHT22;11110;52.386;16.940;2023-06-26T11:25:10;37.30;33.50
21891;DHT22;11110;52.386;16.940;2023-06-26T11:27:39;37.30;34.10
21891;DHT22;11110;52.386;16.940;2023-06-26T11:30:09;37.40;32.70
21891;DHT22;11110;52.386;16.940;2023-06-26T11:32:39;37.40;32.90
21891;DHT22;11110;52.386;16.940;2023-06-26T11:35:08;37.50;33.30
21891;DHT22;11110;52.386;16.940;2023-06-26T11:37:37;37.50;32.80
21891;DHT22;11110;52.386;16.940;2023-06-26T11:40:18;37.50;33.10
21891;DHT22;11110;52.386;16.940;2023-06-26T11:42:47;37.70;33.30
21891;DHT22;11110;52.386;16.940;2023-06-26T11:45:16;37.60;33.60
21891;DHT22;11110;52.386;16.940;2023-06-26T11:47:46;37.70;33.70
21891;DHT22;11110;52.386;16.940;2023-06-26T11:50:15;37.80;33.50
21891;DHT22;11110;52.386;16.940;2023-06-26T11:52:45;37.80;32.40
21891;DHT22;11110;52.386;16.940;2023-06-26T11:55:13;37.90;31.70
21891;DHT22;11110;52.386;16.940;2023-06-26T11:57:42;38.00;31.30
21891;DHT22;11110;52.386;16.940;2023-06-26T12:00:11;38.00;31.80
21891;DHT22;11110;52.386;16.940;2023-06-26T12:02:40;38.10;31.40
21891;DHT22;11110;52.386;16.940;2023-06-26T12:05:11;38.10;31.40
21891;DHT22;11110;52.386;16.940;2023-06-26T12:07:41;38.20;31.60
21891;DHT22;11110;52.386;16.940;2023-06-26T12:10:10;38.20;31.60
21891;DHT22;11110;52.386;16.940;2023-06-26T12:12:40;38.20;31.60
21891;DHT22;11110;52.386;16.940;2023-06-26T12:15:13;38.20;31.40
21891;DHT22;11110;52.386;16.940;2023-06-26T12:17:42;38.20;31.50
21891;DHT22;11110;52.386;16.940;2023-06-26T12:20:22;38.20;31.40
21891;DHT22;11110;52.386;16.940;2023-06-26T12:22:53;38.30;32.70
21891;DHT22;11110;52.386;16.940;2023-06-26T12:25:22;38.20;33.10
21891;DHT22;11110;52.386;16.940;2023-06-26T12:27:51;38.20;33.20
21891;DHT22;11110;52.386;16.940;2023-06-26T12:30:20;38.20;33.50
21891;DHT22;11110;52.386;16.940;2023-06-26T12:32:49;38.20;33.50
21891;DHT22;11110;52.386;16.940;2023-06-26T12:35:18;38.10;33.70
21891;DHT22;11110;52.386;16.940;2023-06-26T12:37:47;38.10;33.50
21891;DHT22;11110;52.386;16.940;2023-06-26T12:40:16;38.00;33.80
21891;DHT22;11110;52.386;16.940;2023-06-26T12:42:46;38.10;34.00
21891;DHT22;11110;52.386;16.940;2023-06-26T12:45:15;38.00;33.90
21891;DHT22;11110;52.386;16.940;2023-06-26T12:47:47;38.00;33.90
21891;DHT22;11110;52.386;16.940;2023-06-26T12:50:15;38.00;34.00
21891;DHT22;11110;52.386;16.940;2023-06-26T12:52:46;38.00;34.00
21891;DHT22;11110;52.386;16.940;2023-06-26T12:55:15;37.90;33.30
21891;DHT22;11110;52.386;16.940;2023-06-26T12:57:44;38.00;33.20
21891;DHT22;11110;52.386;16.940;2023-06-26T13:00:14;37.90;33.50
21891;DHT22;11110;52.386;16.940;2023-06-26T13:02:43;37.90;33.30
21891;DHT22;11110;52.386;16.940;2023-06-26T13:05:13;37.90;33.60
21891;DHT22;11110;52.386;16.940;2023-06-26T13:07:41;37.90;33.90
21891;DHT22;11110;52.386;16.940;2023-06-26T13:10:11;37.90;33.50
21891;DHT22;11110;52.386;16.940;2023-06-26T13:12:40;37.90;33.60
21891;DHT22;11110;52.386;16.940;2023-06-26T13:15:09;38.00;33.70
21891;DHT22;11110;52.386;16.940;2023-06-26T13:17:38;38.00;33.90
21891;DHT22;11110;52.386;16.940;2023-06-26T13:20:08;38.00;34.00
21891;DHT22;11110;52.386;16.940;2023-06-26T13:22:37;38.00;34.00
21891;DHT22;11110;52.386;16.940;2023-06-26T13:25:06;38.20;33.50
21891;DHT22;11110;52.386;16.940;2023-06-26T13:27:37;38.10;33.90
21891;DHT22;11110;52.386;16.940;2023-06-26T13:30:07;38.10;34.00
21891;DHT22;11110;52.386;16.940;2023-06-26T13:32:35;38.10;33.60
21891;DHT22;11110;52.386;16.940;2023-06-26T13:35:05;38.10;33.20
21891;DHT22;11110;52.386;16.940;2023-06-26T13:37:34;38.20;33.40
21891;DHT22;11110;52.386;16.940;2023-06-26T13:40:02;38.20;33.60
21891;DHT22;11110;52.386;16.940;2023-06-26T13:42:39;38.10;33.90
21891;DHT22;11110;52.386;16.940;2023-06-26T13:45:08;38.10;34.10
21891;DHT22;11110;52.386;16.940;2023-06-26T13:47:53;38.20;33.50
21891;DHT22;11110;52.386;16.940;2023-06-26T13:50:21;38.10;33.90
21891;DHT22;11110;52.386;16.940;2023-06-26T13:52:50;38.10;34.40
21891;DHT22;11110;52.386;16.940;2023-06-26T13:55:18;38.10;34.10
21891;DHT22;11110;52.386;16.940;2023-06-26T13:57:51;38.20;34.50
21891;DHT22;11110;52.386;16.940;2023-06-26T14:00:20;38.20;34.40
21891;DHT22;11110;52.386;16.940;2023-06-26T14:02:49;38.20;34.70
21891;DHT22;11110;52.386;16.940;2023-06-26T14:05:18;38.30;34.80
21891;DHT22;11110;52.386;16.940;2023-06-26T14:08:01;38.30;34.40
21891;DHT22;11110;52.386;16.940;2023-06-26T14:10:30;38.40;33.30
21891;DHT22;11110;52.386;16.940;2023-06-26T14:13:01;38.50;33.10
21891;DHT22;11110;52.386;16.940;2023-06-26T14:15:30;38.60;32.10
21891;DHT22;11110;52.386;16.940;2023-06-26T14:17:59;38.60;33.10
21891;DHT22;11110;52.386;16.940;2023-06-26T14:20:30;38.70;33.80
21891;DHT22;11110;52.386;16.940;2023-06-26T14:23:00;38.80;34.00
21891;DHT22;11110;52.386;16.940;2023-06-26T14:25:29;38.90;33.00
21891;DHT22;11110;52.386;16.940;2023-06-26T14:27:58;38.90;33.60
21891;DHT22;11110;52.386;16.940;2023-06-26T14:30:28;39.10;32.90
21891;DHT22;11110;52.386;16.940;2023-06-26T14:32:56;39.10;33.20
21891;DHT22;11110;52.386;16.940;2023-06-26T14:35:25;39.20;33.00
21891;DHT22;11110;52.386;16.940;2023-06-26T14:37:53;39.30;32.90
21891;DHT22;11110;52.386;16.940;2023-06-26T14:40:22;39.40;32.90
21891;DHT22;11110;52.386;16.940;2023-06-26T14:42:51;39.40;32.70
21891;DHT22;11110;52.386;16.940;2023-06-26T14:45:21;39.50;32.20
21891;DHT22;11110;52.386;16.940;2023-06-26T14:47:51;39.50;32.40
21891;DHT22;11110;52.386;16.940;2023-06-26T14:50:20;39.60;32.40
21891;DHT22;11110;52.386;16.940;2023-06-26T14:52:48;39.60;32.40
21891;DHT22;11110;52.386;16.940;2023-06-26T14:55:17;39.60;32.30
21891;DHT22;11110;52.386;16.940;2023-06-26T14:57:45;39.60;32.40
21891;DHT22;11110;52.386;16.940;2023-06-26T15:00:15;39.60;32.50
21891;DHT22;11110;52.386;16.940;2023-06-26T15:02:43;39.60;32.50
21891;DHT22;11110;52.386;16.940;2023-06-26T15:05:13;39.70;32.40
21891;DHT22;11110;52.386;16.940;2023-06-26T15:07:42;39.70;32.40
21891;DHT22;11110;52.386;16.940;2023-06-26T15:10:11;39.80;32.60
21891;DHT22;11110;52.386;16.940;2023-06-26T15:12:39;39.80;32.70
21891;DHT22;11110;52.386;16.940;2023-06-26T15:15:09;39.80;32.90
21891;DHT22;11110;52.386;16.940;2023-06-26T15:17:37;39.80;32.90
21891;DHT22;11110;52.386;16.940;2023-06-26T15:20:07;39.90;32.80
21891;DHT22;11110;52.386;16.940;2023-06-26T15:22:37;39.80;32.50
21891;DHT22;11110;52.386;16.940;2023-06-26T15:25:07;39.70;32.90
21891;DHT22;11110;52.386;16.940;2023-06-26T15:27:35;39.80;33.10
21891;DHT22;11110;52.386;16.940;2023-06-26T15:30:04;39.70;34.40
21891;DHT22;11110;52.386;16.940;2023-06-26T15:32:33;39.70;33.70
21891;DHT22;11110;52.386;16.940;2023-06-26T15:35:02;39.70;33.40